Time;durP1;ratioP1;P1;durP2;ratioP2;P2;SDS_P1;SDS_P2;PMS_P1;PMS_P2;Temp;Humidity;BMP_temperature;BMP_pressure;BME280_temperature;BME280_humidity;BME280_pressure;Samples;Min_cycle;Max_cycle;Signal;HPM_P1;HPM_P2
2021/12/29 00:02:25;;;;;;;34.53;20.23;;;;;;;-4.47;81.62;97758.62;2181426;80;20956;-79
2021/12/29 00:05:25;;;;;;;46.63;22.50;;;;;;;-4.43;81.52;97764.35;2209753;80;21379;-79
2021/12/29 00:08:25;;;;;;;42.50;20.90;;;;;;;-4.40;81.47;97773.03;2211916;80;21324;-79
2021/12/29 00:11:26;;;;;;;44.50;21.87;;;;;;;-4.34;81.32;97780.99;2190918;80;21050;-79
2021/12/29 00:14:27;;;;;;;43.27;20.20;;;;;;;-4.30;81.24;97770.20;2176749;80;20959;-79
2021/12/29 00:17:28;;;;;;;41.43;21.40;;;;;;;-4.24;81.11;97773.06;2185212;80;20987;-80
2021/12/29 00:20:29;;;;;;;39.10;21.07;;;;;;;-4.21;80.97;97774.89;2204558;80;21027;-80
2021/12/29 00:23:29;;;;;;;41.30;20.63;;;;;;;-4.14;80.94;97774.41;2177432;80;20995;-80
2021/12/29 00:26:30;;;;;;;43.57;21.20;;;;;;;-4.09;80.85;97776.80;2192305;80;20980;-80
2021/12/29 00:29:30;;;;;;;38.77;20.47;;;;;;;-4.04;80.78;97779.58;2172385;80;20980;-80
2021/12/29 00:32:31;;;;;;;39.17;20.63;;;;;;;-4.00;80.63;97780.22;2185924;80;20996;-80
2021/12/29 00:35:34;;;;;;;38.47;20.10;;;;;;;-3.97;80.58;97783.80;2208464;80;20976;-79
2021/12/29 00:38:34;;;;;;;41.73;21.07;;;;;;;-3.94;80.51;97786.50;2172095;80;21440;-80
2021/12/29 00:41:34;;;;;;;42.20;21.50;;;;;;;-3.88;80.52;97783.38;2183165;80;21052;-79
2021/12/29 00:44:35;;;;;;;40.17;22.07;;;;;;;-3.85;80.24;97783.14;2165996;80;20984;-79
2021/12/29 00:47:37;;;;;;;40.37;22.13;;;;;;;-3.82;80.31;97786.24;2184698;80;20964;-80
2021/12/29 00:50:38;;;;;;;39.70;21.10;;;;;;;-3.74;80.34;97792.61;2188090;80;21394;-80
2021/12/29 00:53:38;;;;;;;44.27;22.50;;;;;;;-3.68;80.19;97797.14;2194906;80;20980;-80
2021/12/29 00:56:39;;;;;;;39.80;20.90;;;;;;;-3.62;80.08;97801.27;2177704;80;20968;-80
2021/12/29 00:59:39;;;;;;;36.03;19.83;;;;;;;-3.54;79.95;97789.77;2204875;80;20976;-79
2021/12/29 01:02:40;;;;;;;38.27;19.93;;;;;;;-3.53;79.58;97783.87;2186526;80;21078;-79
2021/12/29 01:05:40;;;;;;;38.93;20.13;;;;;;;-3.61;79.49;97792.81;2203660;80;21364;-79
2021/12/29 01:08:41;;;;;;;40.50;20.53;;;;;;;-3.69;79.55;97766.93;2171105;80;20976;-79
2021/12/29 01:11:42;;;;;;;38.40;20.70;;;;;;;-3.69;79.55;97766.93;2182501;80;20999;-79
2021/12/29 01:14:50;;;;;;;36.30;19.37;;;;;;;-3.72;79.59;97772.28;2181856;80;20992;-82
2021/12/29 01:17:44;;;;;;;36.10;19.97;;;;;;;-3.78;79.80;97772.84;2209192;80;21086;-80
2021/12/29 01:20:45;;;;;;;41.27;21.20;;;;;;;-3.77;79.82;97771.17;2176264;80;21010;-79
2021/12/29 01:23:45;;;;;;;42.80;22.23;;;;;;;-3.81;79.79;97766.32;2165848;80;20971;-80
2021/12/29 01:26:46;;;;;;;36.47;19.63;;;;;;;-3.81;79.83;97771.82;2181607;80;20963;-80
2021/12/29 01:29:47;;;;;;;40.40;20.97;;;;;;;-3.82;79.82;97766.25;2180114;80;21302;-79
2021/12/29 01:32:47;;;;;;;145.77;67.47;;;;;;;-3.85;79.85;97765.30;2193341;80;21047;-79
2021/12/29 01:35:48;;;;;;;45.87;24.83;;;;;;;-3.89;80.01;97751.04;2203354;80;21424;-80
2021/12/29 01:38:48;;;;;;;41.57;21.47;;;;;;;-3.89;80.19;97759.97;2206067;80;21027;-79
2021/12/29 01:41:49;;;;;;;39.27;21.50;;;;;;;-3.89;80.19;97752.31;2183816;80;21023;-80
2021/12/29 01:44:50;;;;;;;35.77;20.10;;;;;;;-3.92;80.07;97749.21;2192620;80;20992;-80
2021/12/29 01:47:50;;;;;;;38.00;20.77;;;;;;;-3.95;80.12;97746.52;2198481;80;20944;-79
2021/12/29 01:50:52;;;;;;;35.40;19.10;;;;;;;-3.93;80.12;97751.28;2178966;80;20980;-79
2021/12/29 01:54:15;;;;;;;36.57;18.90;;;;;;;-3.95;80.02;97754.56;2170033;80;20987;-80
2021/12/29 01:57:06;;;;;;;37.63;20.07;;;;;;;-4.03;80.01;97755.45;2178251;80;21448;-80
2021/12/29 02:00:09;;;;;;;40.07;21.30;;;;;;;-4.11;80.15;97749.48;2171041;80;21007;-79
2021/12/29 02:03:09;;;;;;;38.43;21.60;;;;;;;-4.16;80.35;97745.42;2188719;80;21063;-79
2021/12/29 02:06:10;;;;;;;34.53;17.83;;;;;;;-4.22;80.31;97742.56;2193674;80;21631;-80
2021/12/29 02:09:10;;;;;;;39.50;20.57;;;;;;;-4.25;80.34;97744.95;2182820;80;21027;-80
2021/12/29 02:12:11;;;;;;;35.37;18.10;;;;;;;-4.29;80.37;97746.87;2208020;81;21035;-81
2021/12/29 02:15:11;;;;;;;32.63;19.40;;;;;;;-4.35;80.51;97750.34;2184919;80;21040;-79
2021/12/29 02:18:14;;;;;;;39.27;19.27;;;;;;;-4.41;80.42;97744.93;2177369;80;20956;-80
2021/12/29 02:21:20;;;;;;;39.17;19.27;;;;;;;-4.49;80.43;97739.04;2172285;80;21059;-79
2021/12/29 02:24:19;;;;;;;40.27;21.23;;;;;;;-4.54;80.78;97725.19;2188053;80;21438;-80
2021/12/29 02:27:19;;;;;;;35.80;19.67;;;;;;;-4.61;80.83;97737.13;2194699;80;21071;-79
2021/12/29 02:30:19;;;;;;;41.00;20.37;;;;;;;-4.62;80.76;97737.92;2208633;81;21015;-80
2021/12/29 02:33:20;;;;;;;35.40;17.83;;;;;;;-4.66;80.82;97730.04;2196418;80;21050;-79
2021/12/29 02:36:21;;;;;;;44.50;23.20;;;;;;;-4.69;81.08;97730.75;2204753;80;20977;-80
2021/12/29 02:39:21;;;;;;;36.20;19.23;;;;;;;-4.72;81.26;97739.50;2191179;80;21040;-80
2021/12/29 02:42:24;;;;;;;35.97;18.97;;;;;;;-4.75;81.03;97734.25;2198028;80;21340;-80
2021/12/29 02:45:26;;;;;;;35.53;18.90;;;;;;;-4.77;81.04;97734.56;2202623;80;21111;-79
2021/12/29 02:48:26;;;;;;;46.77;20.83;;;;;;;-4.80;81.17;97739.49;2205518;80;21404;-79
2021/12/29 02:51:27;;;;;;;34.90;18.27;;;;;;;-4.79;81.15;97739.97;2189184;80;21000;-80
2021/12/29 02:54:27;;;;;;;35.83;19.33;;;;;;;-4.79;80.97;97741.25;2209186;80;20989;-79
2021/12/29 02:57:28;;;;;;;48.50;21.20;;;;;;;-4.75;81.05;97744.44;2203540;80;20984;-80
2021/12/29 03:00:28;;;;;;;42.83;21.23;;;;;;;-4.70;81.24;97744.67;2193017;80;21367;-79
2021/12/29 03:03:30;;;;;;;38.23;18.87;;;;;;;-4.60;81.28;97746.91;2204376;80;21407;-79
2021/12/29 03:06:31;;;;;;;41.13;22.77;;;;;;;-4.49;81.28;97746.68;2203964;80;20991;-79
2021/12/29 03:09:31;;;;;;;44.60;22.73;;;;;;;-4.36;81.31;97749.86;2180586;80;21410;-80
2021/12/29 03:12:32;;;;;;;37.97;19.77;;;;;;;-4.24;81.20;97748.86;2180859;80;21066;-79
2021/12/29 03:15:32;;;;;;;34.20;18.93;;;;;;;-4.14;80.94;97756.58;2197847;80;21004;-79
2021/12/29 03:18:33;;;;;;;35.03;18.20;;;;;;;-4.05;80.74;97751.06;2191543;80;20999;-80
2021/12/29 03:21:33;;;;;;;37.97;18.50;;;;;;;-3.97;80.62;97749.78;2185684;80;20996;-79
2021/12/29 03:24:34;;;;;;;41.33;20.00;;;;;;;-3.90;80.49;97755.66;2192899;80;21015;-80
2021/12/29 03:27:34;;;;;;;39.10;20.77;;;;;;;-3.85;80.27;97753.82;2210293;80;21004;-79
2021/12/29 03:30:39;;;;;;;36.93;19.37;;;;;;;-3.79;80.25;97748.15;2189598;80;20968;-79
2021/12/29 03:33:40;;;;;;;33.47;17.73;;;;;;;-3.72;80.13;97746.38;2196516;80;21047;-80
2021/12/29 03:36:40;;;;;;;33.33;18.20;;;;;;;-3.70;79.95;97739.67;2189497;80;21383;-79
2021/12/29 03:39:41;;;;;;;35.13;19.23;;;;;;;-3.67;79.86;97745.33;2184696;80;21551;-79
2021/12/29 03:42:41;;;;;;;31.00;17.57;;;;;;;-3.67;79.79;97741.50;2203159;80;21047;-80
2021/12/29 03:45:42;;;;;;;37.67;19.20;;;;;;;-3.63;79.56;97744.68;2185532;80;21452;-81
2021/12/29 03:48:42;;;;;;;36.60;20.47;;;;;;;-3.65;79.57;97745.00;2189018;80;21399;-80
2021/12/29 03:51:43;;;;;;;35.87;19.63;;;;;;;-3.46;80.06;97748.95;2177243;80;21403;-79
2021/12/29 03:54:43;;;;;;;35.03;18.23;;;;;;;-3.52;79.51;97752.45;2192374;80;20964;-80
2021/12/29 03:57:44;;;;;;;36.77;20.83;;;;;;;-3.50;79.52;97757.63;2209396;81;21027;-80
2021/12/29 04:00:44;;;;;;;33.73;18.97;;;;;;;-3.52;79.29;97759.70;2207593;80;20960;-79
2021/12/29 04:03:46;;;;;;;36.83;19.33;;;;;;;-3.54;79.36;97765.53;2177234;80;21003;-79
2021/12/29 04:06:46;;;;;;;50.23;23.90;;;;;;;-3.53;79.48;97765.61;2183846;80;21404;-79
2021/12/29 04:09:46;;;;;;;37.17;19.87;;;;;;;-3.49;79.37;97763.20;2202083;80;20996;-79
2021/12/29 04:12:47;;;;;;;35.17;20.13;;;;;;;-3.51;79.30;97773.34;2209300;80;21071;-80
2021/12/29 04:15:47;;;;;;;37.83;19.63;;;;;;;-3.52;79.25;97767.36;2202837;80;21010;-79
2021/12/29 04:52:36;;;;;;;41.55;26.85;;;;;;;-3.34;80.43;97768.69;2241075;79;28094;-80
2021/12/29 04:55:37;;;;;;;40.23;23.13;;;;;;;-3.10;81.30;97778.32;2228296;80;21418;-81
2021/12/29 04:58:37;;;;;;;41.10;22.27;;;;;;;-3.12;80.95;97782.08;2227827;80;21371;-80
2021/12/29 05:01:38;;;;;;;41.50;22.30;;;;;;;-3.17;80.39;97783.53;2227158;80;20956;-80
2021/12/29 05:04:46;;;;;;;38.97;21.73;;;;;;;-3.26;80.46;97779.27;2226776;80;20991;-80
2021/12/29 05:10:59;;;;;;;42.93;22.10;;;;;;;-3.39;80.54;97771.81;2227479;80;21800;-80
2021/12/29 05:14:00;;;;;;;34.53;20.27;;;;;;;-3.50;81.05;97768.71;2227578;80;20944;-81
2021/12/29 05:17:00;;;;;;;40.03;21.30;;;;;;;-3.53;81.06;97768.16;2227507;80;20963;-80
2021/12/29 05:20:01;;;;;;;38.27;20.80;;;;;;;-3.48;81.25;97778.59;2227361;80;21019;-82
2021/12/29 05:23:01;;;;;;;36.20;21.10;;;;;;;-3.48;81.20;97786.24;2226721;80;20979;-80
2021/12/29 05:26:01;;;;;;;33.87;19.07;;;;;;;-3.46;81.34;97787.23;2227294;80;21378;-80
2021/12/29 05:29:02;;;;;;;47.07;25.43;;;;;;;-3.49;81.36;97783.22;2227979;80;20940;-80
2021/12/29 05:32:02;;;;;;;35.87;20.60;;;;;;;-3.47;81.56;97793.09;2227548;80;21031;-81
2021/12/29 05:35:03;;;;;;;33.30;19.10;;;;;;;-3.41;81.47;97798.53;2227736;80;20976;-79
2021/12/29 05:38:03;;;;;;;35.30;20.73;;;;;;;-3.35;81.43;97802.66;2228338;80;21026;-81
2021/12/29 05:41:04;;;;;;;31.43;18.10;;;;;;;-3.29;81.44;97801.69;2227973;80;21344;-79
2021/12/29 05:44:04;;;;;;;32.83;19.80;;;;;;;-3.25;81.24;97801.03;2228073;80;21019;-82
2021/12/29 05:47:05;;;;;;;37.80;20.43;;;;;;;-3.20;81.38;97793.59;2227305;80;20936;-80
2021/12/29 05:50:05;;;;;;;37.40;19.77;;;;;;;-3.21;81.07;97804.20;2225811;80;21648;-81
2021/12/29 05:53:06;;;;;;;38.70;20.57;;;;;;;-3.18;81.23;97802.60;2209546;81;21324;-80
2021/12/29 05:56:06;;;;;;;31.37;18.10;;;;;;;-3.21;81.05;97809.31;2208942;81;21399;-82
2021/12/29 05:59:07;;;;;;;38.10;21.20;;;;;;;-3.23;81.20;97798.16;2209363;81;20979;-80
2021/12/29 06:02:07;;;;;;;37.43;20.63;;;;;;;-3.18;81.49;97800.05;2208315;81;20983;-80
2021/12/29 06:05:08;;;;;;;37.93;19.63;;;;;;;-3.18;81.49;97800.05;2208383;81;20960;-81
2021/12/29 06:08:08;;;;;;;55.63;30.20;;;;;;;-3.11;81.67;97788.93;2209234;81;21411;-84
2021/12/29 06:11:09;;;;;;;34.07;19.43;;;;;;;-3.03;81.24;97798.23;2209092;81;21432;-82
2021/12/29 06:14:10;;;;;;;37.63;20.37;;;;;;;-3.05;81.16;97794.73;2208920;81;20944;-82
2021/12/29 06:17:11;;;;;;;36.53;19.33;;;;;;;-3.05;81.23;97802.39;2209913;81;21017;-83
2021/12/29 06:20:11;;;;;;;37.87;20.13;;;;;;;-3.05;81.10;97799.44;2210517;81;20972;-81
2021/12/29 06:23:13;;;;;;;34.37;20.03;;;;;;;-3.04;81.17;97799.91;2210191;81;21035;-85
2021/12/29 06:26:13;;;;;;;39.13;20.30;;;;;;;-3.02;81.16;97802.13;2211278;81;21372;-82
2021/12/29 06:29:14;;;;;;;34.77;18.50;;;;;;;-3.01;81.06;97808.98;2210604;81;21032;-84
2021/12/29 06:32:14;;;;;;;35.97;19.20;;;;;;;-3.06;81.10;97804.06;2210320;81;20976;-83
2021/12/29 06:35:15;;;;;;;33.83;18.43;;;;;;;-3.05;81.23;97808.77;2209885;81;21008;-83
2021/12/29 06:38:15;;;;;;;33.13;18.83;;;;;;;-3.00;81.31;97812.42;2210340;81;20952;-83
2021/12/29 06:41:16;;;;;;;35.97;20.93;;;;;;;-2.99;81.27;97812.49;2209833;81;20984;-83
2021/12/29 06:44:16;;;;;;;34.23;19.97;;;;;;;-2.98;81.22;97824.45;2210252;81;20977;-84
2021/12/29 06:47:18;;;;;;;37.30;21.20;;;;;;;-2.94;81.24;97824.20;2210390;81;21023;-84
2021/12/29 06:50:18;;;;;;;34.87;19.93;;;;;;;-2.95;81.23;97821.17;2209876;80;21007;-83
2021/12/29 06:53:19;;;;;;;52.07;29.13;;;;;;;-2.93;81.36;97820.84;2209462;81;20952;-82
2021/12/29 06:56:19;;;;;;;40.37;21.27;;;;;;;-2.90;81.49;97828.25;2209632;81;20951;-84
2021/12/29 06:59:20;;;;;;;38.27;22.43;;;;;;;-2.83;81.21;97824.70;2210290;81;20947;-83
2021/12/29 07:02:20;;;;;;;36.20;20.47;;;;;;;-2.76;81.21;97829.30;2210385;81;21387;-82
2021/12/29 07:05:21;;;;;;;38.77;21.33;;;;;;;-2.74;81.13;97832.80;2209774;81;21344;-84
2021/12/29 07:08:21;;;;;;;33.23;19.80;;;;;;;-2.70;81.18;97842.36;2209272;81;20991;-83
2021/12/29 07:11:22;;;;;;;36.23;21.47;;;;;;;-2.65;81.04;97846.01;2210508;81;20983;-85
2021/12/29 07:14:22;;;;;;;38.63;22.63;;;;;;;-2.63;81.08;97846.55;2210292;81;20952;-81
2021/12/29 07:17:23;;;;;;;31.30;18.73;;;;;;;-2.55;81.09;97856.29;2209276;81;21343;-83
2021/12/29 07:20:24;;;;;;;35.83;20.90;;;;;;;-2.50;80.80;97849.71;2209127;81;21358;-83
2021/12/29 07:23:24;;;;;;;41.70;23.23;;;;;;;-2.47;80.93;97846.02;2187238;81;20986;-84
2021/12/29 07:26:25;;;;;;;42.03;24.00;;;;;;;-2.44;80.81;97851.27;2208160;81;20956;-84
2021/12/29 07:29:25;;;;;;;41.47;23.53;;;;;;;-2.45;80.78;97855.91;2208182;81;20983;-84
2021/12/29 07:32:28;;;;;;;40.03;22.70;;;;;;;-2.43;80.87;97850.06;2208399;81;20995;-83
2021/12/29 07:35:29;;;;;;;38.97;22.57;;;;;;;-2.40;80.88;97854.45;2208695;81;20999;-82
2021/12/29 07:38:29;;;;;;;36.03;21.83;;;;;;;-2.33;81.02;97861.59;2208682;81;20995;-85
2021/12/29 07:41:30;;;;;;;42.57;24.07;;;;;;;-2.31;80.86;97853.59;2209139;81;20944;-85
2021/12/29 07:44:30;;;;;;;39.53;23.73;;;;;;;-2.30;80.84;97863.01;2208429;81;20956;-81
2021/12/29 07:47:34;;;;;;;42.67;24.33;;;;;;;-2.26;80.93;97858.51;2208805;81;20952;-84
2021/12/29 07:50:35;;;;;;;44.57;25.17;;;;;;;-2.27;80.80;97861.47;2207989;80;20968;-81
2021/12/29 07:53:37;;;;;;;46.43;25.70;;;;;;;-2.25;80.92;97863.69;2208963;81;21007;-81
2021/12/29 07:56:37;;;;;;;43.20;24.57;;;;;;;-2.18;81.20;97872.92;2208626;81;20988;-83
2021/12/29 07:59:38;;;;;;;36.50;19.90;;;;;;;-2.13;80.99;97867.20;2209022;81;20945;-85
2021/12/29 08:02:40;;;;;;;43.90;26.10;;;;;;;-2.11;80.94;97866.87;2209773;81;20980;-82
2021/12/29 08:05:41;;;;;;;46.10;24.10;;;;;;;-1.69;81.52;97870.90;2209423;81;21006;-81
2021/12/29 08:08:41;;;;;;;44.20;25.77;;;;;;;-1.72;80.72;97874.59;2209526;81;20984;-81
2021/12/29 08:11:42;;;;;;;47.17;26.50;;;;;;;-1.74;80.51;97876.19;2209310;81;20982;-83
2021/12/29 08:14:43;;;;;;;42.47;24.73;;;;;;;-1.75;80.33;97880.83;2208928;81;20956;-82
2021/12/29 08:17:44;;;;;;;45.10;25.33;;;;;;;-1.76;80.13;97878.67;2208246;81;21357;-83
2021/12/29 08:20:44;;;;;;;46.00;26.83;;;;;;;-1.77;80.19;97879.48;2208224;81;20981;-82
2021/12/29 08:23:45;;;;;;;40.03;23.20;;;;;;;-1.75;80.05;97879.55;2209593;81;20984;-83
2021/12/29 08:26:45;;;;;;;42.60;25.60;;;;;;;-1.72;80.03;97886.11;2209875;81;20965;-82
2021/12/29 08:29:46;;;;;;;52.83;28.63;;;;;;;-1.70;80.15;97889.21;2209665;81;21389;-83
2021/12/29 08:32:46;;;;;;;45.20;25.87;;;;;;;-1.61;80.20;97898.97;2209333;81;20980;-82
2021/12/29 08:35:47;;;;;;;47.47;27.23;;;;;;;-1.52;79.84;97895.53;2209639;81;21662;-82
2021/12/29 08:38:47;;;;;;;58.97;33.47;;;;;;;-1.51;79.64;97903.69;2210419;81;20968;-82
2021/12/29 08:41:47;;;;;;;47.43;27.10;;;;;;;-1.49;79.65;97911.43;2210441;81;20976;-82
2021/12/29 08:44:48;;;;;;;49.47;28.00;;;;;;;-1.41;79.62;97913.92;2210597;81;21000;-84
2021/12/29 08:47:48;;;;;;;51.73;29.40;;;;;;;-1.37;79.68;97919.64;2210862;81;21023;-84
2021/12/29 08:50:49;;;;;;;58.87;31.87;;;;;;;-1.31;79.55;97927.59;2209921;81;20980;-82
2021/12/29 08:53:50;;;;;;;61.37;31.40;;;;;;;-1.26;79.47;97929.94;2210146;81;20968;-81
2021/12/29 08:56:53;;;;;;;56.27;31.13;;;;;;;-1.17;79.53;97927.77;2209830;81;21400;-82
2021/12/29 08:59:53;;;;;;;55.33;30.53;;;;;;;-1.12;78.91;97926.69;2209113;80;21316;-82
2021/12/29 09:02:53;;;;;;;49.23;27.53;;;;;;;-1.08;79.30;97929.84;2208975;81;20956;-84
2021/12/29 09:05:54;;;;;;;54.23;28.07;;;;;;;-1.01;79.20;97923.77;2209678;81;21352;-83
2021/12/29 09:08:54;;;;;;;54.47;30.47;;;;;;;-0.94;78.93;97930.42;2208399;81;20952;-83
2021/12/29 09:11:55;;;;;;;56.40;31.77;;;;;;;-0.85;79.13;97935.56;2208559;81;20980;-84
2021/12/29 09:14:55;;;;;;;59.70;35.23;;;;;;;-0.75;78.91;97937.69;2208923;81;20956;-83
2021/12/29 09:17:56;;;;;;;73.37;42.93;;;;;;;-0.72;78.68;97932.69;2208967;81;20944;-83
2021/12/29 09:20:58;;;;;;;54.23;31.87;;;;;;;-0.68;78.66;97922.16;2208217;81;20944;-82
2021/12/29 09:23:58;;;;;;;64.13;35.13;;;;;;;-0.58;78.70;97920.84;2208816;81;21416;-84
2021/12/29 09:26:59;;;;;;;57.47;31.87;;;;;;;-0.46;78.73;97912.36;2208415;81;20944;-84
2021/12/29 09:29:59;;;;;;;52.90;30.77;;;;;;;-0.33;78.27;97909.47;2207919;81;20924;-82
2021/12/29 09:33:00;;;;;;;52.47;29.93;;;;;;;-0.23;77.81;97896.19;2208149;81;21327;-84
2021/12/29 09:36:03;;;;;;;55.70;32.87;;;;;;;-0.15;77.37;97895.20;2209341;81;21356;-83
2021/12/29 09:39:04;;;;;;;56.30;32.33;;;;;;;-0.17;77.01;97887.85;2209588;81;20972;-82
2021/12/29 09:42:04;;;;;;;59.30;31.23;;;;;;;-0.15;77.36;97883.25;2209974;81;21047;-83
2021/12/29 09:45:05;;;;;;;56.83;32.43;;;;;;;-0.07;77.07;97883.13;2210149;81;20988;-84
2021/12/29 09:48:05;;;;;;;57.80;33.37;;;;;;;0.14;77.01;97877.08;2209718;81;20920;-83
2021/12/29 09:51:06;;;;;;;56.10;33.20;;;;;;;0.39;77.07;97881.00;2210946;80;21412;-85
2021/12/29 09:54:06;;;;;;;58.27;33.00;;;;;;;0.62;76.96;97883.10;2221355;80;21414;-84
2021/12/29 09:57:07;;;;;;;52.77;32.17;;;;;;;0.78;75.85;97878.95;2221081;80;20975;-83
2021/12/29 10:00:07;;;;;;;53.93;33.23;;;;;;;0.91;75.96;97888.87;2220858;80;20975;-84
2021/12/29 10:03:08;;;;;;;78.37;42.87;;;;;;;0.95;75.87;97886.86;2220510;80;20964;-83
2021/12/29 10:06:08;;;;;;;83.30;46.03;;;;;;;0.88;76.05;97886.20;2220680;80;21356;-83
2021/12/29 10:09:09;;;;;;;60.57;35.27;;;;;;;0.95;76.00;97882.13;2220337;80;21387;-85
2021/12/29 10:12:10;;;;;;;63.43;33.80;;;;;;;0.93;75.26;97882.50;2220908;80;21454;-83
2021/12/29 10:15:10;;;;;;;54.40;32.27;;;;;;;0.83;75.58;97888.98;2220846;80;21025;-84
2021/12/29 10:18:11;;;;;;;62.17;35.47;;;;;;;0.71;75.41;97886.40;2221389;80;21679;-86
2021/12/29 10:21:11;;;;;;;58.67;33.00;;;;;;;0.61;75.95;97896.77;2220429;80;20948;-83
2021/12/29 10:24:12;;;;;;;63.40;36.60;;;;;;;0.56;76.32;97899.17;2220947;80;20976;-83
2021/12/29 10:27:12;;;;;;;62.60;36.20;;;;;;;0.54;76.43;97904.66;2220713;80;20971;-85
2021/12/29 10:30:13;;;;;;;56.20;32.97;;;;;;;0.60;76.58;97910.02;2220778;80;21057;-84
2021/12/29 10:33:13;;;;;;;63.50;35.17;;;;;;;0.66;76.24;97918.75;2220540;80;21023;-85
2021/12/29 10:36:14;;;;;;;64.17;35.03;;;;;;;0.61;76.02;97923.31;2219585;80;20947;-80
2021/12/29 10:39:14;;;;;;;63.20;36.03;;;;;;;0.51;76.11;97922.93;2219715;80;20999;-84
2021/12/29 10:42:16;;;;;;;82.30;48.83;;;;;;;0.48;76.33;97917.69;2192433;80;20987;-84
2021/12/29 10:45:17;;;;;;;64.67;34.97;;;;;;;0.52;76.76;97913.13;2220898;80;21350;-83
2021/12/29 10:48:17;;;;;;;69.60;37.63;;;;;;;0.63;76.62;97918.23;2221026;80;20963;-84
2021/12/29 10:51:18;;;;;;;70.70;38.47;;;;;;;0.65;76.24;97914.03;2220595;80;21082;-84
2021/12/29 10:54:19;;;;;;;68.00;38.83;;;;;;;0.64;76.43;97922.55;2220631;80;21415;-83
2021/12/29 10:57:19;;;;;;;71.50;38.67;;;;;;;0.70;76.40;97934.73;2220047;80;21461;-84
2021/12/29 11:00:20;;;;;;;67.07;38.87;;;;;;;0.73;76.11;97927.14;2220904;80;21691;-86
2021/12/29 11:03:20;;;;;;;64.83;36.43;;;;;;;0.73;76.24;97926.73;2220336;80;21274;-85
2021/12/29 11:06:21;;;;;;;65.10;37.83;;;;;;;0.82;76.20;97926.18;2220384;80;20924;-84
2021/12/29 11:09:21;;;;;;;62.40;36.20;;;;;;;0.88;76.23;97930.28;2220504;80;20960;-86
2021/12/29 11:12:23;;;;;;;68.13;38.47;;;;;;;0.91;75.98;97918.83;2221313;80;21010;-85
2021/12/29 11:15:24;;;;;;;63.13;36.87;;;;;;;0.89;76.08;97917.90;2220953;80;21090;-85
2021/12/29 11:18:24;;;;;;;128.57;68.50;;;;;;;0.88;75.86;97922.16;2221319;80;20956;-86
2021/12/29 11:21:25;;;;;;;75.80;41.10;;;;;;;0.91;76.40;97912.41;2221807;80;20967;-84
2021/12/29 11:24:26;;;;;;;64.50;38.37;;;;;;;0.91;75.97;97917.54;2221720;80;20976;-85
2021/12/29 11:27:26;;;;;;;67.60;38.27;;;;;;;0.84;76.17;97916.83;2221679;80;20955;-85
2021/12/29 11:33:29;;;;;;;65.60;37.83;;;;;;;0.83;76.14;97917.66;2190877;80;21281;-86
2021/12/29 11:36:29;;;;;;;73.30;41.17;;;;;;;0.80;76.34;97932.96;2221288;80;20988;-84
2021/12/29 11:39:30;;;;;;;81.53;43.80;;;;;;;0.81;76.39;97936.87;2221340;80;20924;-85
2021/12/29 11:42:30;;;;;;;71.97;40.60;;;;;;;0.88;76.63;97939.27;2221430;80;20995;-87
2021/12/29 11:45:31;;;;;;;68.83;38.23;;;;;;;0.90;76.47;97937.63;2220688;80;20976;-86
2021/12/29 11:48:31;;;;;;;81.10;44.87;;;;;;;0.89;76.29;97937.17;2220911;80;20924;-85
2021/12/29 11:51:32;;;;;;;77.13;42.50;;;;;;;0.91;76.69;97941.54;2219507;80;21738;-86
2021/12/29 11:54:32;;;;;;;90.73;51.57;;;;;;;1.02;76.49;97938.05;2210539;81;20995;-85
2021/12/29 11:57:33;;;;;;;83.47;46.47;;;;;;;1.09;76.44;97932.72;2210099;81;20968;-84
2021/12/29 12:00:33;;;;;;;82.50;44.80;;;;;;;1.17;76.48;97928.30;2210349;81;20940;-86
2021/12/29 12:03:34;;;;;;;69.27;42.40;;;;;;;1.21;76.18;97926.30;2210152;81;20956;-86
2021/12/29 12:06:34;;;;;;;73.93;43.77;;;;;;;1.25;76.09;97923.00;2209688;81;20944;-84
2021/12/29 12:09:35;;;;;;;80.73;43.93;;;;;;;1.30;76.12;97924.84;2210123;81;20976;-86
2021/12/29 12:12:35;;;;;;;73.97;43.53;;;;;;;1.36;75.95;97929.78;2210427;81;21581;-86
2021/12/29 12:15:36;;;;;;;77.37;43.03;;;;;;;1.37;75.62;97930.66;2210105;81;21348;-86
2021/12/29 12:21:41;;;;;;;83.67;46.25;;;;;;;1.39;75.91;97929.88;2164303;81;20967;-83
2021/12/29 12:24:42;;;;;;;79.37;46.23;;;;;;;1.39;75.78;97936.31;2210124;81;21019;-83
2021/12/29 12:27:42;;;;;;;97.60;53.77;;;;;;;1.45;75.85;97935.64;2210809;81;20975;-83
2021/12/29 12:30:45;;;;;;;81.73;43.00;;;;;;;1.53;75.64;97941.50;2187278;81;20995;-80
2021/12/29 12:33:45;;;;;;;78.23;43.80;;;;;;;1.56;75.79;97945.87;2210048;81;20983;-82
2021/12/29 12:36:46;;;;;;;76.40;43.30;;;;;;;1.66;75.71;97954.34;2209304;81;21363;-82
2021/12/29 12:39:47;;;;;;;74.93;42.70;;;;;;;1.68;75.33;97952.69;2209754;81;21395;-82
2021/12/29 12:42:47;;;;;;;76.80;43.80;;;;;;;1.70;75.24;97962.62;2209223;81;20984;-82
2021/12/29 12:45:50;;;;;;;87.83;44.50;;;;;;;1.67;75.16;97968.95;2210014;81;20913;-84
2021/12/29 12:48:52;;;;;;;73.67;39.67;;;;;;;1.64;75.44;97974.00;2210079;81;21407;-82
2021/12/29 12:51:52;;;;;;;70.70;41.80;;;;;;;2.45;91.56;97977.43;2209638;81;21493;-82
2021/12/29 12:54:53;;;;;;;95.57;57.23;;;;;;;5.30;82.07;97965.48;2209763;81;20952;-82
2021/12/29 12:57:53;;;;;;;75.03;43.23;;;;;;;4.83;74.00;97972.30;2209151;81;20948;-83
2021/12/29 13:03:58;;;;;;;75.90;44.77;;;;;;;3.73;71.94;97989.15;2186420;81;20956;-84
2021/12/29 13:06:59;;;;;;;78.20;45.17;;;;;;;3.36;73.01;97989.88;2207984;81;21798;-84
2021/12/29 13:10:00;;;;;;;80.07;45.93;;;;;;;3.79;75.20;97986.72;2208789;81;20992;-84
2021/12/29 13:13:01;;;;;;;76.73;44.67;;;;;;;3.55;72.45;97984.39;2208916;81;20991;-84
2021/12/29 13:16:01;;;;;;;84.17;48.17;;;;;;;3.28;72.17;97977.20;2209626;81;20933;-84
2021/12/29 13:19:02;;;;;;;80.00;46.50;;;;;;;3.02;71.84;97977.38;2210274;81;20921;-83
2021/12/29 13:22:02;;;;;;;78.07;46.70;;;;;;;2.85;72.53;97988.92;2209532;81;20948;-84
2021/12/29 13:25:03;;;;;;;76.20;44.10;;;;;;;2.75;72.89;97986.91;2209969;81;20976;-84
2021/12/29 13:28:04;;;;;;;80.30;46.83;;;;;;;2.68;72.99;97986.28;2209319;81;21366;-76
2021/12/29 13:31:05;;;;;;;105.87;62.33;;;;;;;2.59;73.27;97991.13;2210036;81;21379;-83
2021/12/29 13:34:05;;;;;;;87.13;48.07;;;;;;;2.49;73.44;98001.16;2209990;81;20991;-84
2021/12/29 13:37:06;;;;;;;83.90;47.40;;;;;;;2.40;73.30;98003.87;2208975;81;20944;-85
2021/12/29 13:40:09;;;;;;;82.03;45.17;;;;;;;2.31;73.79;98001.90;2209487;81;21011;-84
2021/12/29 13:43:09;;;;;;;83.17;46.23;;;;;;;2.28;74.04;98008.24;2209720;81;21456;-84
2021/12/29 13:46:09;;;;;;;83.10;46.80;;;;;;;2.27;74.07;98011.64;2209700;81;20912;-84
2021/12/29 13:49:11;;;;;;;76.93;44.23;;;;;;;2.18;74.15;98012.64;2209840;81;21399;-84
2021/12/29 13:52:11;;;;;;;76.87;44.93;;;;;;;2.14;74.20;98019.40;2211214;80;21044;-82
2021/12/29 13:55:12;;;;;;;80.73;46.40;;;;;;;2.07;74.50;98023.89;2220793;80;21316;-82
2021/12/29 13:58:12;;;;;;;82.47;45.77;;;;;;;1.98;74.73;98022.73;2220418;80;21359;-82
2021/12/29 14:01:13;;;;;;;82.27;46.20;;;;;;;1.93;75.05;98021.70;2220607;80;20944;-83
2021/12/29 14:04:16;;;;;;;77.10;45.30;;;;;;;1.89;75.27;98025.88;2219493;80;20994;-82
2021/12/29 14:07:17;;;;;;;75.30;43.63;;;;;;;1.92;75.53;98025.98;2219316;80;20941;-83
2021/12/29 14:10:17;;;;;;;74.60;43.43;;;;;;;1.87;75.56;98027.11;2220208;80;20984;-82
2021/12/29 14:13:18;;;;;;;76.17;44.03;;;;;;;1.85;75.71;98039.06;2220762;80;20944;-82
2021/12/29 14:16:19;;;;;;;78.37;42.77;;;;;;;1.82;75.69;98045.80;2220097;80;20916;-83
2021/12/29 14:19:20;;;;;;;81.10;44.70;;;;;;;1.78;75.84;98047.40;2220526;80;20947;-82
2021/12/29 14:22:20;;;;;;;76.27;43.53;;;;;;;1.75;75.95;98048.58;2220219;80;20904;-82
2021/12/29 14:25:22;;;;;;;80.97;45.30;;;;;;;1.72;76.03;98054.88;2219961;80;20928;-83
2021/12/29 14:28:22;;;;;;;78.77;43.60;;;;;;;1.71;76.21;98057.41;2220691;80;21375;-83
2021/12/29 14:31:23;;;;;;;84.27;46.07;;;;;;;1.70;76.29;98059.09;2220573;80;21015;-83
2021/12/29 14:34:23;;;;;;;89.00;47.60;;;;;;;1.69;76.43;98056.47;2220607;80;21395;-84
2021/12/29 14:37:24;;;;;;;78.20;44.77;;;;;;;1.66;76.42;98059.81;2221066;80;21347;-83
2021/12/29 14:40:25;;;;;;;89.40;47.60;;;;;;;1.65;76.63;98060.64;2221191;80;20982;-83